x

Ne Puerto Rico - 170 Nm Nne Of San Juan, P R (41043) Wave Buoy

11:50pm - Sun 25th Jan 2015 All times are AST. -4 hours from GMT.

  • Sig Wave height 4.3ft
  • Swell Direction
  • Peak Period 11s
  • Average Period 6s
  • Wind
    13mph, 16mph gusts
  • Sea Temp 80°f
  • Air Temp 79°f
  • Sea Pressure 1018.1mb
  • Ne Puerto Rico  - 170 Nm Nne Of San Juan,  P R
  • Ne Puerto Rico  - 170 Nm Nne Of San Juan,  P R

More Historic Weather Station data

Upgrade to MSW Pro to gain access to the past 30 days of data for over 8000 Wavebouys and Weather Stations around the globe.

Join Pro

Comparision Forecast

View Surf forecast
   
Sun 01/25 11:50pm 4.5ft 11s 6s 13 16 mph 1018.1mb 80f 79f
10:50pm 4.5ft 11s 6s 13 16 mph 1018.2mb 80f 79f
9:50pm 4.5ft 11s 6s 13 18 mph 1017.9mb 80f 79f
8:50pm 4.5ft 9s 7s 13 16 mph 1017.9mb 80f 79f
7:50pm 4.5ft 9s 7s 11 13 mph 1017.8mb 80f 78f
6:50pm 4.5ft 10s 7s 11
mph
1017.3mb 80f 79f
5:50pm 4.5ft 10s 7s 7 9 mph 1017.1mb 80f 79f
4:50pm 4ft 10s 6s 4 7 mph 1016.8mb 80f 80f
3:50pm 4ft 10s 7s 7 9 mph 1016.5mb 80f 79f
2:50pm 3.5ft 10s 6s 7 9 mph 1016.7mb 80f 80f
1:50pm 4ft 9s 6s 9 11 mph 1017.1mb 80f 79f
12:50pm 3.5ft 11s 6s 11 16 mph 1017.8mb 80f 79f
11:50am 4ft 11s 6s 9 13 mph 1018.6mb 80f 79f
10:50am 4ft 9s 6s 11 13 mph 1019mb 80f 79f
9:50am 4ft 8s 6s 11 13 mph 1019.2mb 80f 80f
8:50am 4ft 10s 6s 11 16 mph 1018.4mb 80f 79f
7:50am 4ft 9s 5s 11 13 mph 1017.6mb 80f 78f
6:50am 4.5ft 9s 6s 13 16 mph 1017.1mb 80f 79f
5:50am 4ft 9s 5s 13 16 mph 1016.4mb 80f 78f
4:50am 4ft 8s 5s 13 16 mph 1016.2mb 80f 78f
3:50am 4ft 9s 5s 13 16 mph 1016mb 80f 78f
2:50am 3.5ft 9s 5s 13 18 mph 1016.6mb 80f 79f
1:50am 4ft 9s 5s 13 16 mph 1017.5mb 80f 79f
12:50am 4ft 9s 5s 13 16 mph 1018mb 80f 79f
Sat 01/24 11:50pm 4ft 9s 5s 13 16 mph 1018.2mb 80f 79f
10:50pm 4ft 9s 5s 13 16 mph 1018.3mb 80f 79f
9:50pm 3.5ft 9s 5s 13 16 mph 1018.4mb 80f 79f
8:50pm 4ft 9s 5s 11 13 mph 1018.1mb 80f 79f
7:50pm 4ft 10s 5s 13 16 mph 1017.5mb 80f 79f
6:50pm 4ft 9s 5s 13 16 mph 1017mb 80f 79f
5:50pm 4ft 9s 5s 13 16 mph 1016.8mb 80f 79f
4:50pm 4.5ft 10s 5s 13 16 mph 1016.6mb 80f 79f
3:50pm 4.5ft 9s 5s 13 16 mph 1016.4mb 80f 78f
2:50pm 4.5ft 10s 5s 20 25 mph 1016.3mb 80f 78f
1:50pm 4.5ft 10s 5s 18 20 mph 1016.8mb 80f 78f
12:50pm 4.5ft 6s 5s 20 22 mph 1017.6mb 80f 77f
11:50am 4.5ft 9s 6s 16 20 mph 1018.4mb 80f 77f
10:50am 4.5ft 10s 6s 16 18 mph 1018.9mb 80f 76f
9:50am 4.5ft 9s 6s 13 16 mph 1018.9mb 80f 76f
8:50am 4.5ft 9s 6s 11 16 mph 1018.5mb 80f 77f
7:50am 4ft 10s 6s 11 16 mph 1017.6mb 80f 77f
6:50am  -   -   -  2 4 mph 1017.2mb 80f 77f
5:50am 4ft 10s 6s 2 4 mph 1016.9mb 80f 78f
4:50am 4ft 10s 6s 7
mph
1016.3mb 80f 77f
3:50am 4ft 9s 6s 4 7 mph 1016.5mb 80f 76f
2:50am 4.5ft 9s 7s 2
mph
1016.7mb 80f 77f
1:50am 4.5ft 9s 7s 7 9 mph 1017.4mb 80f 76f
12:50am 3.5ft 9s 6s 9 11 mph 1017.6mb 80f 78f
Fri 01/23 11:50pm 4ft 10s 7s 7 11 mph 1018.1mb 80f 78f
10:50pm 4ft 10s 7s 9 11 mph 1018.2mb 80f 78f
9:50pm 4ft 9s 7s 9 11 mph 1018.3mb 80f 79f
8:50pm 4ft 10s 7s 9 11 mph 1017.9mb 80f 78f
7:50pm 4ft 10s 7s 9
mph
1017.5mb 80f 79f
6:50pm 4ft 10s 7s 7 9 mph 1017.3mb 80f 79f
5:50pm 3.5ft 10s 7s 7 9 mph 1017mb 81f 79f
4:50pm 4ft 9s 7s 7 9 mph 1016.7mb 81f 79f
3:50pm 4ft 10s 7s 7 9 mph 1016.7mb 81f 79f
2:50pm 4ft 9s 7s 7 9 mph 1016.6mb 81f 79f
1:50pm 4ft 10s 7s 9
mph
1017.2mb 81f 79f
12:50pm 4.5ft 9s 7s 9 11 mph 1017.8mb 80f 79f
11:50am 4.5ft 10s 7s 9 11 mph 1018.6mb 80f 79f
10:50am 4ft 10s 7s 9 11 mph 1019.3mb 80f 79f
9:50am 4.5ft 10s 7s 11 13 mph 1019mb 80f 79f
8:50am 4ft 9s 6s 11 13 mph 1018.3mb 80f 79f
7:50am 4.5ft 10s 7s 11 13 mph 1017.8mb 80f 78f
6:50am 4.5ft 10s 7s 11 13 mph 1017.1mb 80f 78f
5:50am 4.5ft 8s 7s 11 13 mph 1016.7mb 80f 78f
4:50am 4ft 9s 7s 11 13 mph 1016.3mb 80f 78f
3:50am 4.5ft 9s 7s 11 13 mph 1016.4mb 80f 78f
2:50am 4.5ft 9s 7s 11 13 mph 1016.9mb 80f 78f
1:50am 4.5ft 10s 7s 9 11 mph 1017.5mb 80f 78f
12:50am 4.5ft 10s 7s 9 11 mph 1018.2mb 80f 78f
Thu 01/22 11:50pm 4.5ft 10s 7s 11 13 mph 1018.5mb 80f 78f
10:50pm 4.5ft 10s 7s 11 13 mph 1018.8mb 80f 79f
9:50pm 4.5ft 9s 7s 9 11 mph 1018.9mb 80f 79f
8:50pm 4.5ft 10s 7s 11 13 mph 1018.8mb 80f 79f
7:50pm 5ft 9s 7s 9 11 mph 1018.5mb 80f 79f
6:50pm 5ft 9s 7s 9 11 mph 1017.9mb 80f 79f
5:50pm 5ft 10s 7s 7 9 mph 1017.3mb 80f 79f
4:50pm 5ft 10s 7s 9
mph
1016.7mb 81f 79f
3:50pm 4.5ft 10s 7s 7 9 mph 1016.5mb 81f 79f
2:50pm 5ft 10s 8s 7 9 mph 1016.7mb 81f 79f
1:50pm 5ft 10s 8s 7 9 mph 1017.3mb 81f 79f
12:50pm 5ft 10s 7s 9 11 mph 1017.9mb 81f 79f
11:50am 4.5ft 10s 7s 9 11 mph 1018.7mb 80f 79f
10:50am 5ft 11s 7s 7 9 mph 1019.2mb 80f 79f
9:50am 5ft 11s 7s 7 9 mph 1019mb 80f 79f
8:50am 5ft 11s 7s 4 7 mph 1018.1mb 80f 79f
7:50am 5ft 10s 8s 7 9 mph 1017.5mb 80f 78f
6:50am 5ft 9s 7s 4 7 mph 1016.8mb 80f 78f
5:50am 5ft 10s 8s 4
mph
1016.4mb 80f 78f
4:50am 5ft 10s 7s 2 4 mph 1015.9mb 80f 78f